PWSweather.com
Personal Weather Stations
Station Observations
BNUMANCIA
BarcelonaES 08029

BarcelonaES 08029

Lat: 41.3855863, Lon: 2.1367624

Elevation: 46

Station Type: WMR180

High Low Average
Temperature 0.0°F-17.8°F 0.0°F-17.8°F 0.0°F-17.8°F
Dew Point 0.0°F-17.8°F 0.0°F-17.8°F 0.0°F-17.8°F
Winds Calm Calm Calm Calm Calm Calm
Wind Gusts -- -- --
Humidity 0% 0% 0%
Pressure 0.00 in0.00 in 0.00 in0.00 in -
Precipitation 0.00 in0.0 mm - -
Hour Temp Dew Point Humidity Winds Wind Gusts Pressure Precip Precip Rate Daily Precip Total
12:00 AM 61.0°F16.1°C 46.6°F8.1°C 59% 2.7 mph W4.3 kmh W 2.7 mph4.3 kmh 30.24 in1024.0 mb 0.00 in0.0 mm 0.00 in0.0 mm 0.00 in0.0 mm
12:04 AM 61.0°F16.1°C 46.6°F8.1°C 59% Calm Calm 2.7 mph4.3 kmh 30.24 in1024.0 mb 0.00 in0.0 mm 0.00 in0.0 mm 0.00 in0.0 mm
12:09 AM 61.0°F16.1°C 46.6°F8.1°C 59% Calm Calm -- 30.21 in1023.0 mb 0.00 in0.0 mm 0.00 in0.0 mm 0.00 in0.0 mm
12:14 AM 61.0°F16.1°C 46.6°F8.1°C 59% Calm Calm 2.7 mph4.3 kmh 30.21 in1023.0 mb 0.00 in0.0 mm 0.00 in0.0 mm 0.00 in0.0 mm
12:19 AM 61.0°F16.1°C 47.0°F8.3°C 60% Calm Calm 3.8 mph6.1 kmh 30.21 in1023.0 mb 0.00 in0.0 mm 0.00 in0.0 mm 0.00 in0.0 mm
12:24 AM 61.0°F16.1°C 47.0°F8.3°C 60% Calm Calm -- 30.21 in1023.0 mb 0.00 in0.0 mm 0.00 in0.0 mm 0.00 in0.0 mm
12:29 AM 61.0°F16.1°C 47.0°F8.3°C 60% Calm Calm -- 30.21 in1023.0 mb 0.00 in0.0 mm 0.00 in0.0 mm 0.00 in0.0 mm
12:34 AM 61.0°F16.1°C 47.0°F8.3°C 60% Calm Calm 2.5 mph4.0 kmh 30.21 in1023.0 mb 0.00 in0.0 mm 0.00 in0.0 mm 0.00 in0.0 mm
12:39 AM 61.0°F16.1°C 47.0°F8.3°C 60% Calm Calm 2.5 mph4.0 kmh 30.21 in1023.0 mb 0.00 in0.0 mm 0.00 in0.0 mm 0.00 in0.0 mm
12:44 AM 61.0°F16.1°C 47.0°F8.3°C 60% Calm Calm 1.6 mph2.6 kmh 30.21 in1023.0 mb 0.00 in0.0 mm 0.00 in0.0 mm 0.00 in0.0 mm
12:50 AM 61.2°F16.2°C 47.2°F8.4°C 60% 3.1 mph WSW5.0 kmh WSW 3.1 mph5.0 kmh 30.21 in1023.0 mb 0.00 in0.0 mm 0.00 in0.0 mm 0.00 in0.0 mm
12:55 AM 61.2°F16.2°C 47.2°F8.4°C 60% 2.9 mph W4.7 kmh W 3.1 mph5.0 kmh 30.21 in1023.0 mb 0.00 in0.0 mm 0.00 in0.0 mm 0.00 in0.0 mm
01:00 AM 61.3°F16.3°C 46.9°F8.3°C 59% 3.1 mph WSW5.0 kmh WSW 3.8 mph6.1 kmh 30.21 in1023.0 mb 0.00 in0.0 mm 0.00 in0.0 mm 0.00 in0.0 mm
01:04 AM 61.5°F16.4°C 47.1°F8.4°C 59% 1.3 mph W2.1 kmh W 5.6 mph9.0 kmh 30.21 in1023.0 mb 0.00 in0.0 mm 0.00 in0.0 mm 0.00 in0.0 mm
01:09 AM 61.7°F16.5°C 46.8°F8.2°C 58% 1.3 mph WSW2.1 kmh WSW 2.0 mph3.2 kmh 30.21 in1023.0 mb 0.00 in0.0 mm 0.00 in0.0 mm 0.00 in0.0 mm
01:13 AM 61.7°F16.5°C 46.8°F8.2°C 58% 3.4 mph WSW5.5 kmh WSW 3.4 mph5.5 kmh 30.21 in1023.0 mb 0.00 in0.0 mm 0.00 in0.0 mm 0.00 in0.0 mm
01:19 AM 61.9°F16.6°C 47.0°F8.3°C 58% 3.8 mph W6.1 kmh W 3.8 mph6.1 kmh 30.21 in1023.0 mb 0.00 in0.0 mm 0.00 in0.0 mm 0.00 in0.0 mm
01:24 AM 61.9°F16.6°C 46.5°F8.1°C 57% 3.1 mph W5.0 kmh W 5.4 mph8.7 kmh 30.21 in1023.0 mb 0.00 in0.0 mm 0.00 in0.0 mm 0.00 in0.0 mm
01:29 AM 62.1°F16.7°C 46.7°F8.2°C 57% Calm Calm 2.9 mph4.7 kmh 30.21 in1023.0 mb 0.00 in0.0 mm 0.00 in0.0 mm 0.00 in0.0 mm
01:34 AM 62.1°F16.7°C 46.7°F8.2°C 57% Calm Calm -- 30.21 in1023.0 mb 0.00 in0.0 mm 0.00 in0.0 mm 0.00 in0.0 mm
01:38 AM 61.9°F16.6°C 46.0°F7.8°C 56% Calm Calm -- 30.21 in1023.0 mb 0.00 in0.0 mm 0.00 in0.0 mm 0.00 in0.0 mm
01:44 AM 61.7°F16.5°C 45.9°F7.7°C 56% Calm Calm -- 30.21 in1023.0 mb 0.00 in0.0 mm 0.00 in0.0 mm 0.00 in0.0 mm
01:50 AM 61.9°F16.6°C 46.0°F7.8°C 56% 3.1 mph W5.0 kmh W 3.1 mph5.0 kmh 30.21 in1023.0 mb 0.00 in0.0 mm 0.00 in0.0 mm 0.00 in0.0 mm
01:55 AM 61.9°F16.6°C 46.0°F7.8°C 56% 2.5 mph W4.0 kmh W 3.1 mph5.0 kmh 30.24 in1024.0 mb 0.00 in0.0 mm 0.00 in0.0 mm 0.00 in0.0 mm
02:00 AM 61.9°F16.6°C 46.0°F7.8°C 56% 2.7 mph W4.3 kmh W 2.7 mph4.3 kmh 30.24 in1024.0 mb 0.00 in0.0 mm 0.00 in0.0 mm 0.00 in0.0 mm
02:04 AM 61.9°F16.6°C 46.0°F7.8°C 56% Calm Calm 2.7 mph4.3 kmh 30.24 in1024.0 mb 0.00 in0.0 mm 0.00 in0.0 mm 0.00 in0.0 mm
02:09 AM 61.9°F16.6°C 45.6°F7.6°C 55% Calm Calm 1.3 mph2.1 kmh 30.24 in1024.0 mb 0.00 in0.0 mm 0.00 in0.0 mm 0.00 in0.0 mm
02:14 AM 62.1°F16.7°C 45.7°F7.6°C 55% 3.4 mph WSW5.5 kmh WSW 6.3 mph10.1 kmh 30.24 in1024.0 mb 0.00 in0.0 mm 0.00 in0.0 mm 0.00 in0.0 mm
02:19 AM 62.1°F16.7°C 45.7°F7.6°C 55% 4.5 mph WSW7.2 kmh WSW 4.7 mph7.6 kmh 30.24 in1024.0 mb 0.00 in0.0 mm 0.00 in0.0 mm 0.00 in0.0 mm
02:24 AM 62.1°F16.7°C 45.7°F7.6°C 55% 2.9 mph WSW4.7 kmh WSW 5.4 mph8.7 kmh 30.21 in1023.0 mb 0.00 in0.0 mm 0.00 in0.0 mm 0.00 in0.0 mm
02:29 AM 62.2°F16.8°C 45.4°F7.4°C 54% 2.7 mph W4.3 kmh W 7.6 mph12.2 kmh 30.21 in1023.0 mb 0.00 in0.0 mm 0.00 in0.0 mm 0.00 in0.0 mm
02:34 AM 62.8°F17.1°C 45.4°F7.4°C 53% 3.1 mph ESE5.0 kmh ESE 7.4 mph11.9 kmh 30.21 in1023.0 mb 0.00 in0.0 mm 0.00 in0.0 mm 0.00 in0.0 mm
02:39 AM 63.0°F17.2°C 45.6°F7.6°C 53% 3.8 mph W6.1 kmh W 5.8 mph9.3 kmh 30.21 in1023.0 mb 0.00 in0.0 mm 0.00 in0.0 mm 0.00 in0.0 mm
02:44 AM 63.1°F17.3°C 45.3°F7.4°C 52% 2.0 mph WSW3.2 kmh WSW 5.8 mph9.3 kmh 30.21 in1023.0 mb 0.00 in0.0 mm 0.00 in0.0 mm 0.00 in0.0 mm
02:50 AM 63.1°F17.3°C 45.3°F7.4°C 52% 2.5 mph W4.0 kmh W 9.4 mph15.1 kmh 30.21 in1023.0 mb 0.00 in0.0 mm 0.00 in0.0 mm 0.00 in0.0 mm
02:55 AM 63.3°F17.4°C 45.4°F7.4°C 52% 4.9 mph WSW7.9 kmh WSW 4.9 mph7.9 kmh 30.21 in1023.0 mb 0.00 in0.0 mm 0.00 in0.0 mm 0.00 in0.0 mm
03:09 AM 63.3°F17.4°C 44.9°F7.2°C 51% 1.6 mph WSW2.6 kmh WSW 2.9 mph4.7 kmh 30.21 in1023.0 mb 0.00 in0.0 mm 0.00 in0.0 mm 0.00 in0.0 mm
03:14 AM 63.3°F17.4°C 44.9°F7.2°C 51% 2.0 mph WSW3.2 kmh WSW 4.3 mph6.9 kmh 30.21 in1023.0 mb 0.00 in0.0 mm 0.00 in0.0 mm 0.00 in0.0 mm
03:19 AM 63.3°F17.4°C 44.9°F7.2°C 51% 5.4 mph WSW8.7 kmh WSW 5.6 mph9.0 kmh 30.21 in1023.0 mb 0.00 in0.0 mm 0.00 in0.0 mm 0.00 in0.0 mm
03:24 AM 63.3°F17.4°C 44.9°F7.2°C 51% 5.6 mph WSW9.0 kmh WSW 5.6 mph9.0 kmh 30.21 in1023.0 mb 0.00 in0.0 mm 0.00 in0.0 mm 0.00 in0.0 mm
03:29 AM 63.3°F17.4°C 44.9°F7.2°C 51% 4.3 mph W6.9 kmh W 5.4 mph8.7 kmh 30.21 in1023.0 mb 0.00 in0.0 mm 0.00 in0.0 mm 0.00 in0.0 mm
03:34 AM 63.3°F17.4°C 44.9°F7.2°C 51% 3.6 mph WSW5.8 kmh WSW 5.4 mph8.7 kmh 30.21 in1023.0 mb 0.00 in0.0 mm 0.00 in0.0 mm 0.00 in0.0 mm
03:39 AM 63.1°F17.3°C 44.7°F7.1°C 51% 4.7 mph W7.6 kmh W 5.8 mph9.3 kmh 30.21 in1023.0 mb 0.00 in0.0 mm 0.00 in0.0 mm 0.00 in0.0 mm
03:44 AM 63.1°F17.3°C 44.7°F7.1°C 51% Calm Calm 3.6 mph5.8 kmh 30.21 in1023.0 mb 0.00 in0.0 mm 0.00 in0.0 mm 0.00 in0.0 mm
03:50 AM 63.1°F17.3°C 44.2°F6.8°C 50% 2.7 mph W4.3 kmh W 5.8 mph9.3 kmh 30.21 in1023.0 mb 0.00 in0.0 mm 0.00 in0.0 mm 0.00 in0.0 mm
03:55 AM 63.1°F17.3°C 44.7°F7.1°C 51% 3.6 mph WSW5.8 kmh WSW 7.4 mph11.9 kmh 30.18 in1022.0 mb 0.00 in0.0 mm 0.00 in0.0 mm 0.00 in0.0 mm
04:00 AM 63.1°F17.3°C 44.7°F7.1°C 51% 5.6 mph WSW9.0 kmh WSW 5.6 mph9.0 kmh 30.18 in1022.0 mb 0.00 in0.0 mm 0.00 in0.0 mm 0.00 in0.0 mm
04:04 AM 62.8°F17.1°C 44.4°F6.9°C 51% 2.9 mph WNW4.7 kmh WNW 10.3 mph16.6 kmh 30.18 in1022.0 mb 0.00 in0.0 mm 0.00 in0.0 mm 0.00 in0.0 mm
04:09 AM 62.4°F16.9°C 44.1°F6.7°C 51% 2.0 mph NE3.2 kmh NE 5.4 mph8.7 kmh 30.18 in1022.0 mb 0.00 in0.0 mm 0.00 in0.0 mm 0.00 in0.0 mm
04:14 AM 62.2°F16.8°C 44.4°F6.9°C 52% 1.6 mph NNE2.6 kmh NNE 1.6 mph2.6 kmh 30.18 in1022.0 mb 0.00 in0.0 mm 0.00 in0.0 mm 0.00 in0.0 mm
04:19 AM 62.1°F16.7°C 44.3°F6.8°C 52% Calm Calm 1.3 mph2.1 kmh 30.18 in1022.0 mb 0.00 in0.0 mm 0.00 in0.0 mm 0.00 in0.0 mm
04:24 AM 61.9°F16.6°C 44.1°F6.7°C 52% Calm Calm -- 30.18 in1022.0 mb 0.00 in0.0 mm 0.00 in0.0 mm 0.00 in0.0 mm
04:29 AM 61.9°F16.6°C 44.1°F6.7°C 52% Calm Calm 1.6 mph2.6 kmh 30.18 in1022.0 mb 0.00 in0.0 mm 0.00 in0.0 mm 0.00 in0.0 mm
04:34 AM 61.9°F16.6°C 44.1°F6.7°C 52% Calm Calm 4.0 mph6.4 kmh 30.18 in1022.0 mb 0.00 in0.0 mm 0.00 in0.0 mm 0.00 in0.0 mm
04:39 AM 61.9°F16.6°C 44.1°F6.7°C 52% 2.7 mph NNE4.3 kmh NNE 6.5 mph10.5 kmh 30.18 in1022.0 mb 0.00 in0.0 mm 0.00 in0.0 mm 0.00 in0.0 mm
04:44 AM 61.9°F16.6°C 44.1°F6.7°C 52% Calm Calm 3.4 mph5.5 kmh 30.18 in1022.0 mb 0.00 in0.0 mm 0.00 in0.0 mm 0.00 in0.0 mm
04:50 AM 61.7°F16.5°C 44.4°F6.9°C 53% 3.4 mph NNE5.5 kmh NNE 4.9 mph7.9 kmh 30.18 in1022.0 mb 0.00 in0.0 mm 0.00 in0.0 mm 0.00 in0.0 mm
04:55 AM 61.7°F16.5°C 44.4°F6.9°C 53% 4.7 mph WSW7.6 kmh WSW 4.7 mph7.6 kmh 30.18 in1022.0 mb 0.00 in0.0 mm 0.00 in0.0 mm 0.00 in0.0 mm
05:00 AM 61.9°F16.6°C 44.6°F7.0°C 53% 6.0 mph WSW9.7 kmh WSW 6.0 mph9.7 kmh 30.18 in1022.0 mb 0.00 in0.0 mm 0.00 in0.0 mm 0.00 in0.0 mm
05:04 AM 62.1°F16.7°C 44.8°F7.1°C 53% 3.8 mph W6.1 kmh W 6.0 mph9.7 kmh 30.18 in1022.0 mb 0.00 in0.0 mm 0.00 in0.0 mm 0.00 in0.0 mm
05:09 AM 62.2°F16.8°C 44.4°F6.9°C 52% 2.7 mph WNW4.3 kmh WNW 4.3 mph6.9 kmh 30.18 in1022.0 mb 0.00 in0.0 mm 0.00 in0.0 mm 0.00 in0.0 mm
05:14 AM 62.1°F16.7°C 44.3°F6.8°C 52% 4.9 mph WSW7.9 kmh WSW 4.9 mph7.9 kmh 30.18 in1022.0 mb 0.00 in0.0 mm 0.00 in0.0 mm 0.00 in0.0 mm
05:19 AM 61.9°F16.6°C 44.1°F6.7°C 52% 1.1 mph NNE1.8 kmh NNE 4.9 mph7.9 kmh 30.18 in1022.0 mb 0.00 in0.0 mm 0.00 in0.0 mm 0.00 in0.0 mm
05:24 AM 61.7°F16.5°C 43.9°F6.6°C 52% 2.9 mph WNW4.7 kmh WNW 2.9 mph4.7 kmh 30.18 in1022.0 mb 0.00 in0.0 mm 0.00 in0.0 mm 0.00 in0.0 mm
05:29 AM 61.7°F16.5°C 43.9°F6.6°C 52% Calm Calm 0.9 mph1.4 kmh 30.18 in1022.0 mb 0.00 in0.0 mm 0.00 in0.0 mm 0.00 in0.0 mm
05:34 AM 61.5°F16.4°C 44.3°F6.8°C 53% 2.0 mph WNW3.2 kmh WNW 2.2 mph3.5 kmh 30.18 in1022.0 mb 0.00 in0.0 mm 0.00 in0.0 mm 0.00 in0.0 mm
05:39 AM 61.5°F16.4°C 44.3°F6.8°C 53% Calm Calm 3.4 mph5.5 kmh 30.18 in1022.0 mb 0.00 in0.0 mm 0.00 in0.0 mm 0.00 in0.0 mm
05:44 AM 61.3°F16.3°C 44.1°F6.7°C 53% 3.1 mph WNW5.0 kmh WNW 3.1 mph5.0 kmh 30.18 in1022.0 mb 0.00 in0.0 mm 0.00 in0.0 mm 0.00 in0.0 mm
05:50 AM 61.2°F16.2°C 44.4°F6.9°C 54% 3.4 mph WNW5.5 kmh WNW 3.4 mph5.5 kmh 30.18 in1022.0 mb 0.00 in0.0 mm 0.00 in0.0 mm 0.00 in0.0 mm
05:55 AM 61.2°F16.2°C 44.4°F6.9°C 54% 2.0 mph W3.2 kmh W 4.0 mph6.4 kmh 30.18 in1022.0 mb 0.00 in0.0 mm 0.00 in0.0 mm 0.00 in0.0 mm
06:00 AM 61.0°F16.1°C 44.2°F6.8°C 54% 0.9 mph WSW1.4 kmh WSW 4.0 mph6.4 kmh 30.18 in1022.0 mb 0.00 in0.0 mm 0.00 in0.0 mm 0.00 in0.0 mm
06:04 AM 61.0°F16.1°C 44.2°F6.8°C 54% 0.9 mph WSW1.4 kmh WSW 2.7 mph4.3 kmh 30.18 in1022.0 mb 0.00 in0.0 mm 0.00 in0.0 mm 0.00 in0.0 mm
06:09 AM 61.0°F16.1°C 44.7°F7.1°C 55% Calm Calm 2.0 mph3.2 kmh 30.18 in1022.0 mb 0.00 in0.0 mm 0.00 in0.0 mm 0.00 in0.0 mm
06:19 AM 60.6°F15.9°C 44.4°F6.9°C 55% 2.5 mph W4.0 kmh W 2.5 mph4.0 kmh 30.18 in1022.0 mb 0.00 in0.0 mm 0.00 in0.0 mm 0.00 in0.0 mm
06:24 AM 60.8°F16.0°C 44.6°F7.0°C 55% 3.1 mph W5.0 kmh W 5.6 mph9.0 kmh 30.18 in1022.0 mb 0.00 in0.0 mm 0.00 in0.0 mm 0.00 in0.0 mm
06:29 AM 61.0°F16.1°C 44.7°F7.1°C 55% 4.7 mph W7.6 kmh W 4.7 mph7.6 kmh 30.18 in1022.0 mb 0.00 in0.0 mm 0.00 in0.0 mm 0.00 in0.0 mm
06:34 AM 61.2°F16.2°C 44.9°F7.2°C 55% 4.3 mph W6.9 kmh W 4.3 mph6.9 kmh 30.18 in1022.0 mb 0.00 in0.0 mm 0.00 in0.0 mm 0.00 in0.0 mm
06:39 AM 61.2°F16.2°C 44.9°F7.2°C 55% 2.0 mph W3.2 kmh W 3.1 mph5.0 kmh 30.18 in1022.0 mb 0.00 in0.0 mm 0.00 in0.0 mm 0.00 in0.0 mm
06:44 AM 61.2°F16.2°C 44.9°F7.2°C 55% Calm Calm 2.7 mph4.3 kmh 30.18 in1022.0 mb 0.00 in0.0 mm 0.00 in0.0 mm 0.00 in0.0 mm
06:50 AM 61.3°F16.3°C 45.1°F7.3°C 55% 2.5 mph W4.0 kmh W 2.5 mph4.0 kmh 30.18 in1022.0 mb 0.00 in0.0 mm 0.00 in0.0 mm 0.00 in0.0 mm
06:55 AM 61.3°F16.3°C 45.1°F7.3°C 55% 4.3 mph W6.9 kmh W 4.3 mph6.9 kmh 30.21 in1023.0 mb 0.00 in0.0 mm 0.00 in0.0 mm 0.00 in0.0 mm
07:00 AM 61.5°F16.4°C 45.2°F7.3°C 55% Calm Calm -- 30.21 in1023.0 mb 0.00 in0.0 mm 0.00 in0.0 mm 0.00 in0.0 mm
07:05 AM 61.7°F16.5°C 44.9°F7.2°C 54% 7.2 mph WSW11.6 kmh WSW 7.2 mph11.6 kmh 30.21 in1023.0 mb 0.00 in0.0 mm 0.00 in0.0 mm 0.00 in0.0 mm
07:08 AM 61.7°F16.5°C 44.9°F7.2°C 54% 1.1 mph NNE1.8 kmh NNE 7.2 mph11.6 kmh 30.21 in1023.0 mb 0.00 in0.0 mm 0.00 in0.0 mm 0.00 in0.0 mm
07:14 AM 61.9°F16.6°C 45.1°F7.3°C 54% 2.5 mph NW4.0 kmh NW 4.0 mph6.4 kmh 30.21 in1023.0 mb 0.00 in0.0 mm 0.00 in0.0 mm 0.00 in0.0 mm
07:19 AM 62.1°F16.7°C 45.2°F7.3°C 54% 0.9 mph W1.4 kmh W 2.5 mph4.0 kmh 30.21 in1023.0 mb 0.00 in0.0 mm 0.00 in0.0 mm 0.00 in0.0 mm
07:24 AM 62.2°F16.8°C 45.4°F7.4°C 54% 2.2 mph WNW3.5 kmh WNW 4.3 mph6.9 kmh 30.24 in1024.0 mb 0.00 in0.0 mm 0.00 in0.0 mm 0.00 in0.0 mm
07:29 AM 62.4°F16.9°C 45.6°F7.6°C 54% 7.2 mph WSW11.6 kmh WSW 7.2 mph11.6 kmh 30.24 in1024.0 mb 0.00 in0.0 mm 0.00 in0.0 mm 0.00 in0.0 mm
07:34 AM 62.4°F16.9°C 45.1°F7.3°C 53% 4.7 mph WSW7.6 kmh WSW 7.2 mph11.6 kmh 30.24 in1024.0 mb 0.00 in0.0 mm 0.00 in0.0 mm 0.00 in0.0 mm
07:39 AM 62.6°F17.0°C 45.3°F7.4°C 53% 3.4 mph SW5.5 kmh SW 3.8 mph6.1 kmh 30.21 in1023.0 mb 0.00 in0.0 mm 0.00 in0.0 mm 0.00 in0.0 mm
07:44 AM 63.0°F17.2°C 45.6°F7.6°C 53% 2.5 mph WSW4.0 kmh WSW 4.7 mph7.6 kmh 30.21 in1023.0 mb 0.00 in0.0 mm 0.00 in0.0 mm 0.00 in0.0 mm
07:49 AM 63.1°F17.3°C 45.8°F7.7°C 53% 1.6 mph ENE2.6 kmh ENE 1.6 mph2.6 kmh 30.21 in1023.0 mb 0.00 in0.0 mm 0.00 in0.0 mm 0.00 in0.0 mm
07:55 AM 63.3°F17.4°C 45.9°F7.7°C 53% Calm Calm 4.0 mph6.4 kmh 30.24 in1024.0 mb 0.00 in0.0 mm 0.00 in0.0 mm 0.00 in0.0 mm
08:00 AM 63.7°F17.6°C 46.3°F7.9°C 53% Calm Calm -- 30.24 in1024.0 mb 0.00 in0.0 mm 0.00 in0.0 mm 0.00 in0.0 mm
08:05 AM 63.9°F17.7°C 45.9°F7.7°C 52% Calm Calm 0.9 mph1.4 kmh 30.24 in1024.0 mb 0.00 in0.0 mm 0.00 in0.0 mm 0.00 in0.0 mm
08:09 AM 64.0°F17.8°C 46.1°F7.8°C 52% Calm Calm -- 30.24 in1024.0 mb 0.00 in0.0 mm 0.00 in0.0 mm 0.00 in0.0 mm
08:14 AM 64.2°F17.9°C 46.2°F7.9°C 52% 2.7 mph NE4.3 kmh NE 2.7 mph4.3 kmh 30.24 in1024.0 mb 0.00 in0.0 mm 0.00 in0.0 mm 0.00 in0.0 mm
08:19 AM 64.4°F18.0°C 46.4°F8.0°C 52% Calm Calm 2.5 mph4.0 kmh 30.24 in1024.0 mb 0.00 in0.0 mm 0.00 in0.0 mm 0.00 in0.0 mm
08:24 AM 64.8°F18.2°C 46.7°F8.2°C 52% 2.0 mph NNE3.2 kmh NNE 2.5 mph4.0 kmh 30.24 in1024.0 mb 0.00 in0.0 mm 0.00 in0.0 mm 0.00 in0.0 mm
08:29 AM 64.9°F18.3°C 46.4°F8.0°C 51% Calm Calm -- 30.24 in1024.0 mb 0.00 in0.0 mm 0.00 in0.0 mm 0.00 in0.0 mm
08:34 AM 65.1°F18.4°C 46.6°F8.1°C 51% Calm Calm 2.2 mph3.5 kmh 30.24 in1024.0 mb 0.00 in0.0 mm 0.00 in0.0 mm 0.00 in0.0 mm
08:39 AM 65.1°F18.4°C 46.6°F8.1°C 51% 4.3 mph WSW6.9 kmh WSW 4.3 mph6.9 kmh 30.24 in1024.0 mb 0.00 in0.0 mm 0.00 in0.0 mm 0.00 in0.0 mm
08:44 AM 65.1°F18.4°C 46.6°F8.1°C 51% 1.3 mph W2.1 kmh W 3.8 mph6.1 kmh 30.24 in1024.0 mb 0.00 in0.0 mm 0.00 in0.0 mm 0.00 in0.0 mm
08:50 AM 65.5°F18.6°C 46.9°F8.3°C 51% 1.6 mph W2.6 kmh W 2.5 mph4.0 kmh 30.24 in1024.0 mb 0.00 in0.0 mm 0.00 in0.0 mm 0.00 in0.0 mm
09:00 AM 65.7°F18.7°C 46.5°F8.1°C 50% 2.9 mph W4.7 kmh W 5.4 mph8.7 kmh 30.24 in1024.0 mb 0.00 in0.0 mm 0.00 in0.0 mm 0.00 in0.0 mm
09:05 AM 65.8°F18.8°C 46.7°F8.2°C 50% 4.3 mph W6.9 kmh W 4.3 mph6.9 kmh 30.24 in1024.0 mb 0.00 in0.0 mm 0.00 in0.0 mm 0.00 in0.0 mm
09:09 AM 65.8°F18.8°C 46.7°F8.2°C 50% 5.4 mph WSW8.7 kmh WSW 5.4 mph8.7 kmh 30.24 in1024.0 mb 0.00 in0.0 mm 0.00 in0.0 mm 0.00 in0.0 mm
09:14 AM 65.8°F18.8°C 46.7°F8.2°C 50% Calm Calm 3.4 mph5.5 kmh 30.24 in1024.0 mb 0.00 in0.0 mm 0.00 in0.0 mm 0.00 in0.0 mm
09:19 AM 66.2°F19.0°C 46.5°F8.1°C 49% 2.9 mph WSW4.7 kmh WSW 4.3 mph6.9 kmh 30.24 in1024.0 mb 0.00 in0.0 mm 0.00 in0.0 mm 0.00 in0.0 mm
09:24 AM 66.2°F19.0°C 46.5°F8.1°C 49% 3.6 mph WSW5.8 kmh WSW 4.3 mph6.9 kmh 30.24 in1024.0 mb 0.00 in0.0 mm 0.00 in0.0 mm 0.00 in0.0 mm
09:29 AM 66.6°F19.2°C 46.8°F8.2°C 49% 3.1 mph WSW5.0 kmh WSW 4.3 mph6.9 kmh 30.24 in1024.0 mb 0.00 in0.0 mm 0.00 in0.0 mm 0.00 in0.0 mm
09:34 AM 66.7°F19.3°C 47.0°F8.3°C 49% 2.0 mph WSW3.2 kmh WSW 2.0 mph3.2 kmh 30.24 in1024.0 mb 0.00 in0.0 mm 0.00 in0.0 mm 0.00 in0.0 mm
09:39 AM 66.7°F19.3°C 47.0°F8.3°C 49% 2.7 mph WSW4.3 kmh WSW 5.4 mph8.7 kmh 30.24 in1024.0 mb 0.00 in0.0 mm 0.00 in0.0 mm 0.00 in0.0 mm
09:44 AM 66.7°F19.3°C 47.0°F8.3°C 49% 2.7 mph WSW4.3 kmh WSW 5.8 mph9.3 kmh 30.24 in1024.0 mb 0.00 in0.0 mm 0.00 in0.0 mm 0.00 in0.0 mm
09:50 AM 66.9°F19.4°C 47.2°F8.4°C 49% Calm Calm 3.8 mph6.1 kmh 30.24 in1024.0 mb 0.00 in0.0 mm 0.00 in0.0 mm 0.00 in0.0 mm
09:55 AM 67.1°F19.5°C 47.3°F8.5°C 49% Calm Calm 1.6 mph2.6 kmh 30.24 in1024.0 mb 0.00 in0.0 mm 0.00 in0.0 mm 0.00 in0.0 mm
10:00 AM 67.3°F19.6°C 46.9°F8.3°C 48% 2.9 mph W4.7 kmh W 2.9 mph4.7 kmh 30.24 in1024.0 mb 0.00 in0.0 mm 0.00 in0.0 mm 0.00 in0.0 mm
10:05 AM 67.5°F19.7°C 47.1°F8.4°C 48% Calm Calm 4.7 mph7.6 kmh 30.24 in1024.0 mb 0.00 in0.0 mm 0.00 in0.0 mm 0.00 in0.0 mm
10:09 AM 67.5°F19.7°C 46.6°F8.1°C 47% 4.3 mph WSW6.9 kmh WSW 4.3 mph6.9 kmh 30.24 in1024.0 mb 0.00 in0.0 mm 0.00 in0.0 mm 0.00 in0.0 mm
10:14 AM 67.8°F19.9°C 47.4°F8.6°C 48% 3.6 mph WSW5.8 kmh WSW 5.6 mph9.0 kmh 30.24 in1024.0 mb 0.00 in0.0 mm 0.00 in0.0 mm 0.00 in0.0 mm
10:19 AM 67.8°F19.9°C 46.9°F8.3°C 47% 7.4 mph WSW11.9 kmh WSW 7.4 mph11.9 kmh 30.24 in1024.0 mb 0.00 in0.0 mm 0.00 in0.0 mm 0.00 in0.0 mm
10:24 AM 68.0°F20.0°C 47.0°F8.3°C 47% 5.8 mph SW9.3 kmh SW 12.3 mph19.8 kmh 30.24 in1024.0 mb 0.00 in0.0 mm 0.00 in0.0 mm 0.00 in0.0 mm
10:29 AM 68.5°F20.3°C 47.5°F8.6°C 47% 6.5 mph WSW10.5 kmh WSW 9.6 mph15.4 kmh 30.24 in1024.0 mb 0.00 in0.0 mm 0.00 in0.0 mm 0.00 in0.0 mm
10:34 AM 68.9°F20.5°C 47.9°F8.8°C 47% 5.6 mph SSW9.0 kmh SSW 8.7 mph14.0 kmh 30.24 in1024.0 mb 0.00 in0.0 mm 0.00 in0.0 mm 0.00 in0.0 mm
10:39 AM 69.1°F20.6°C 47.5°F8.6°C 46% 13.0 mph W20.9 kmh W 13.0 mph20.9 kmh 30.24 in1024.0 mb 0.00 in0.0 mm 0.00 in0.0 mm 0.00 in0.0 mm
10:44 AM 69.4°F20.8°C 47.8°F8.8°C 46% 6.0 mph WSW9.7 kmh WSW 9.4 mph15.1 kmh 30.24 in1024.0 mb 0.00 in0.0 mm 0.00 in0.0 mm 0.00 in0.0 mm
10:49 AM 69.8°F21.0°C 48.1°F8.9°C 46% 8.5 mph SW13.7 kmh SW 8.5 mph13.7 kmh 30.24 in1024.0 mb 0.00 in0.0 mm 0.00 in0.0 mm 0.00 in0.0 mm
10:55 AM 70.3°F21.3°C 48.0°F8.9°C 45% 2.7 mph WSW4.3 kmh WSW 2.7 mph4.3 kmh 30.24 in1024.0 mb 0.00 in0.0 mm 0.00 in0.0 mm 0.00 in0.0 mm
11:00 AM 70.5°F21.4°C 48.2°F9.0°C 45% 6.5 mph W10.5 kmh W 6.5 mph10.5 kmh 30.24 in1024.0 mb 0.00 in0.0 mm 0.00 in0.0 mm 0.00 in0.0 mm
11:13 AM 71.6°F22.0°C 49.2°F9.6°C 45% 1.3 mph NW2.1 kmh NW 3.1 mph5.0 kmh 30.24 in1024.0 mb 0.00 in0.0 mm 0.00 in0.0 mm 0.00 in0.0 mm
11:19 AM 70.0°F21.1°C 47.7°F8.7°C 45% 2.7 mph WSW4.3 kmh WSW 4.9 mph7.9 kmh 30.24 in1024.0 mb 0.00 in0.0 mm 0.00 in0.0 mm 0.00 in0.0 mm
11:24 AM 69.3°F20.7°C 47.6°F8.7°C 46% 1.1 mph N1.8 kmh N 2.9 mph4.7 kmh 30.24 in1024.0 mb 0.00 in0.0 mm 0.00 in0.0 mm 0.00 in0.0 mm
11:29 AM 69.3°F20.7°C 47.6°F8.7°C 46% 2.0 mph N3.2 kmh N 2.7 mph4.3 kmh 30.24 in1024.0 mb 0.00 in0.0 mm 0.00 in0.0 mm 0.00 in0.0 mm
11:34 AM 69.4°F20.8°C 47.8°F8.8°C 46% Calm Calm 2.5 mph4.0 kmh 30.24 in1024.0 mb 0.00 in0.0 mm 0.00 in0.0 mm 0.00 in0.0 mm
11:39 AM 70.0°F21.1°C 48.3°F9.1°C 46% 1.3 mph SW2.1 kmh SW 1.3 mph2.1 kmh 30.24 in1024.0 mb 0.00 in0.0 mm 0.00 in0.0 mm 0.00 in0.0 mm
11:44 AM 70.7°F21.5°C 48.9°F9.4°C 46% Calm Calm 2.2 mph3.5 kmh 30.24 in1024.0 mb 0.00 in0.0 mm 0.00 in0.0 mm 0.00 in0.0 mm
11:49 AM 70.9°F21.6°C 49.1°F9.5°C 46% 1.3 mph NNE2.1 kmh NNE 1.6 mph2.6 kmh 30.24 in1024.0 mb 0.00 in0.0 mm 0.00 in0.0 mm 0.00 in0.0 mm
11:55 AM 71.2°F21.8°C 49.4°F9.7°C 46% 2.5 mph NE4.0 kmh NE 3.8 mph6.1 kmh 30.24 in1024.0 mb 0.00 in0.0 mm 0.00 in0.0 mm 0.00 in0.0 mm
12:00 PM 71.6°F22.0°C 49.2°F9.6°C 45% 2.7 mph E4.3 kmh E 4.3 mph6.9 kmh 30.24 in1024.0 mb 0.00 in0.0 mm 0.00 in0.0 mm 0.00 in0.0 mm
12:05 PM 71.8°F22.1°C 49.3°F9.6°C 45% 1.6 mph N2.6 kmh N 2.7 mph4.3 kmh 30.24 in1024.0 mb 0.00 in0.0 mm 0.00 in0.0 mm 0.00 in0.0 mm
12:09 PM 73.0°F22.8°C 50.5°F10.3°C 45% Calm Calm 2.5 mph4.0 kmh 30.24 in1024.0 mb 0.00 in0.0 mm 0.00 in0.0 mm 0.00 in0.0 mm
12:14 PM 73.8°F23.2°C 51.1°F10.6°C 45% Calm Calm 1.3 mph2.1 kmh 30.24 in1024.0 mb 0.00 in0.0 mm 0.00 in0.0 mm 0.00 in0.0 mm
12:19 PM 73.6°F23.1°C 50.4°F10.2°C 44% 2.7 mph WNW4.3 kmh WNW 2.7 mph4.3 kmh 30.24 in1024.0 mb 0.00 in0.0 mm 0.00 in0.0 mm 0.00 in0.0 mm
12:24 PM 73.4°F23.0°C 50.2°F10.1°C 44% 0.9 mph NNE1.4 kmh NNE 2.9 mph4.7 kmh 30.24 in1024.0 mb 0.00 in0.0 mm 0.00 in0.0 mm 0.00 in0.0 mm
12:29 PM 72.5°F22.5°C 48.8°F9.3°C 43% 3.4 mph NE5.5 kmh NE 3.4 mph5.5 kmh 30.24 in1024.0 mb 0.00 in0.0 mm 0.00 in0.0 mm 0.00 in0.0 mm
12:34 PM 72.7°F22.6°C 49.5°F9.7°C 44% 0.9 mph NNE1.4 kmh NNE 3.4 mph5.5 kmh 30.24 in1024.0 mb 0.00 in0.0 mm 0.00 in0.0 mm 0.00 in0.0 mm
12:39 PM 72.3°F22.4°C 48.6°F9.2°C 43% 5.8 mph N9.3 kmh N 5.8 mph9.3 kmh 30.24 in1024.0 mb 0.00 in0.0 mm 0.00 in0.0 mm 0.00 in0.0 mm
12:43 PM 72.3°F22.4°C 48.6°F9.2°C 43% 2.0 mph N3.2 kmh N 2.5 mph4.0 kmh 30.24 in1024.0 mb 0.00 in0.0 mm 0.00 in0.0 mm 0.00 in0.0 mm
12:49 PM 72.9°F22.7°C 49.7°F9.8°C 44% 1.6 mph NW2.6 kmh NW 2.5 mph4.0 kmh 30.24 in1024.0 mb 0.00 in0.0 mm 0.00 in0.0 mm 0.00 in0.0 mm
12:53 PM 72.9°F22.7°C 49.1°F9.5°C 43% 2.5 mph N4.0 kmh N 2.5 mph4.0 kmh 30.24 in1024.0 mb 0.00 in0.0 mm 0.00 in0.0 mm 0.00 in0.0 mm
01:00 PM 73.2°F22.9°C 49.4°F9.7°C 43% Calm Calm -- 30.24 in1024.0 mb 0.00 in0.0 mm 0.00 in0.0 mm 0.00 in0.0 mm
01:05 PM 73.2°F22.9°C 49.4°F9.7°C 43% 2.5 mph ENE4.0 kmh ENE 2.5 mph4.0 kmh 30.24 in1024.0 mb 0.00 in0.0 mm 0.00 in0.0 mm 0.00 in0.0 mm
01:16 PM 73.4°F23.0°C 49.6°F9.8°C 43% Calm Calm 2.0 mph3.2 kmh 30.24 in1024.0 mb 0.00 in0.0 mm 0.00 in0.0 mm 0.00 in0.0 mm
01:39 PM 74.7°F23.7°C 50.1°F10.1°C 42% 1.1 mph NNE1.8 kmh NNE 3.8 mph6.1 kmh 30.21 in1023.0 mb 0.00 in0.0 mm 0.00 in0.0 mm 0.00 in0.0 mm
01:44 PM 74.7°F23.7°C 50.1°F10.1°C 42% 2.9 mph NE4.7 kmh NE 2.9 mph4.7 kmh 30.21 in1023.0 mb 0.00 in0.0 mm 0.00 in0.0 mm 0.00 in0.0 mm
02:10 PM 74.3°F23.5°C 49.1°F9.5°C 41% Calm Calm 1.3 mph2.1 kmh 30.21 in1023.0 mb 0.00 in0.0 mm 0.00 in0.0 mm 0.00 in0.0 mm
02:15 PM 74.5°F23.6°C 49.3°F9.6°C 41% 2.0 mph NNE3.2 kmh NNE 2.0 mph3.2 kmh 30.21 in1023.0 mb 0.00 in0.0 mm 0.00 in0.0 mm 0.00 in0.0 mm
02:19 PM 74.7°F23.7°C 49.4°F9.7°C 41% 2.7 mph ENE4.3 kmh ENE 3.4 mph5.5 kmh 30.21 in1023.0 mb 0.00 in0.0 mm 0.00 in0.0 mm 0.00 in0.0 mm
02:24 PM 73.6°F23.1°C 48.5°F9.2°C 41% 1.6 mph SSW2.6 kmh SSW 4.5 mph7.2 kmh 30.18 in1022.0 mb 0.00 in0.0 mm 0.00 in0.0 mm 0.00 in0.0 mm
02:39 PM 71.6°F22.0°C 47.3°F8.5°C 42% 3.1 mph ENE5.0 kmh ENE 4.0 mph6.4 kmh 30.18 in1022.0 mb 0.00 in0.0 mm 0.00 in0.0 mm 0.00 in0.0 mm
02:55 PM 68.4°F20.2°C 46.2°F7.9°C 45% 2.2 mph W3.5 kmh W 2.2 mph3.5 kmh 30.18 in1022.0 mb 0.00 in0.0 mm 0.00 in0.0 mm 0.00 in0.0 mm
03:40 PM 66.9°F19.4°C 44.9°F7.2°C 45% 2.9 mph SSW4.7 kmh SSW 3.8 mph6.1 kmh 30.18 in1022.0 mb 0.00 in0.0 mm 0.00 in0.0 mm 0.00 in0.0 mm
03:44 PM 66.7°F19.3°C 44.8°F7.1°C 45% 0.9 mph E1.4 kmh E 2.9 mph4.7 kmh 30.18 in1022.0 mb 0.00 in0.0 mm 0.00 in0.0 mm 0.00 in0.0 mm
03:49 PM 66.6°F19.2°C 44.6°F7.0°C 45% 3.4 mph NE5.5 kmh NE 3.6 mph5.8 kmh 30.18 in1022.0 mb 0.00 in0.0 mm 0.00 in0.0 mm 0.00 in0.0 mm
03:54 PM 66.4°F19.1°C 43.8°F6.6°C 44% 2.0 mph NE3.2 kmh NE 4.7 mph7.6 kmh 30.18 in1022.0 mb 0.00 in0.0 mm 0.00 in0.0 mm 0.00 in0.0 mm
03:59 PM 66.6°F19.2°C 44.6°F7.0°C 45% 5.8 mph NE9.3 kmh NE 5.8 mph9.3 kmh 30.18 in1022.0 mb 0.00 in0.0 mm 0.00 in0.0 mm 0.00 in0.0 mm
04:05 PM 66.7°F19.3°C 44.2°F6.8°C 44% 1.1 mph ENE1.8 kmh ENE 5.8 mph9.3 kmh 30.18 in1022.0 mb 0.00 in0.0 mm 0.00 in0.0 mm 0.00 in0.0 mm
04:10 PM 66.6°F19.2°C 44.0°F6.7°C 44% 2.9 mph NE4.7 kmh NE 3.1 mph5.0 kmh 30.18 in1022.0 mb 0.00 in0.0 mm 0.00 in0.0 mm 0.00 in0.0 mm
04:15 PM 66.6°F19.2°C 43.4°F6.3°C 43% 3.4 mph NNE5.5 kmh NNE 4.9 mph7.9 kmh 30.18 in1022.0 mb 0.00 in0.0 mm 0.00 in0.0 mm 0.00 in0.0 mm
04:19 PM 66.4°F19.1°C 43.8°F6.6°C 44% 3.4 mph NE5.5 kmh NE 3.8 mph6.1 kmh 30.18 in1022.0 mb 0.00 in0.0 mm 0.00 in0.0 mm 0.00 in0.0 mm
04:24 PM 66.4°F19.1°C 43.8°F6.6°C 44% 3.6 mph NE5.8 kmh NE 4.0 mph6.4 kmh 30.18 in1022.0 mb 0.00 in0.0 mm 0.00 in0.0 mm 0.00 in0.0 mm
04:29 PM 66.0°F18.9°C 44.1°F6.7°C 45% 4.3 mph NE6.9 kmh NE 4.3 mph6.9 kmh 30.18 in1022.0 mb 0.00 in0.0 mm 0.00 in0.0 mm 0.00 in0.0 mm
04:34 PM 66.0°F18.9°C 43.5°F6.4°C 44% 3.8 mph NE6.1 kmh NE 4.0 mph6.4 kmh 30.18 in1022.0 mb 0.00 in0.0 mm 0.00 in0.0 mm 0.00 in0.0 mm
04:39 PM 65.8°F18.8°C 43.9°F6.6°C 45% 4.0 mph ENE6.4 kmh ENE 4.0 mph6.4 kmh 30.18 in1022.0 mb 0.00 in0.0 mm 0.00 in0.0 mm 0.00 in0.0 mm
04:44 PM 65.1°F18.4°C 43.9°F6.6°C 46% 3.1 mph SE5.0 kmh SE 4.9 mph7.9 kmh 30.18 in1022.0 mb 0.00 in0.0 mm 0.00 in0.0 mm 0.00 in0.0 mm
04:49 PM 64.8°F18.2°C 43.5°F6.4°C 46% 2.0 mph NNE3.2 kmh NNE 6.0 mph9.7 kmh 30.18 in1022.0 mb 0.00 in0.0 mm 0.00 in0.0 mm 0.00 in0.0 mm
04:54 PM 64.4°F18.0°C 43.8°F6.6°C 47% 2.7 mph ENE4.3 kmh ENE 5.6 mph9.0 kmh 30.18 in1022.0 mb 0.00 in0.0 mm 0.00 in0.0 mm 0.00 in0.0 mm
04:59 PM 64.2°F17.9°C 44.1°F6.7°C 48% 7.4 mph N11.9 kmh N 7.8 mph12.6 kmh 30.18 in1022.0 mb 0.00 in0.0 mm 0.00 in0.0 mm 0.00 in0.0 mm
05:05 PM 64.2°F17.9°C 44.7°F7.1°C 49% 4.0 mph NE6.4 kmh NE 4.9 mph7.9 kmh 30.18 in1022.0 mb 0.00 in0.0 mm 0.00 in0.0 mm 0.00 in0.0 mm
05:10 PM 64.0°F17.8°C 45.6°F7.6°C 51% 3.1 mph NE5.0 kmh NE 6.3 mph10.1 kmh 30.18 in1022.0 mb 0.00 in0.0 mm 0.00 in0.0 mm 0.00 in0.0 mm
05:15 PM 63.7°F17.6°C 45.8°F7.7°C 52% 2.0 mph ENE3.2 kmh ENE 5.6 mph9.0 kmh 30.18 in1022.0 mb 0.00 in0.0 mm 0.00 in0.0 mm 0.00 in0.0 mm
05:19 PM 63.3°F17.4°C 44.4°F6.9°C 50% 6.3 mph WSW10.1 kmh WSW 7.6 mph12.2 kmh 30.18 in1022.0 mb 0.00 in0.0 mm 0.00 in0.0 mm 0.00 in0.0 mm
05:24 PM 63.3°F17.4°C 44.9°F7.2°C 51% 1.6 mph N2.6 kmh N 2.9 mph4.7 kmh 30.18 in1022.0 mb 0.00 in0.0 mm 0.00 in0.0 mm 0.00 in0.0 mm
05:29 PM 63.1°F17.3°C 44.7°F7.1°C 51% 5.4 mph SW8.7 kmh SW 5.4 mph8.7 kmh 30.18 in1022.0 mb 0.00 in0.0 mm 0.00 in0.0 mm 0.00 in0.0 mm
05:34 PM 63.1°F17.3°C 45.8°F7.7°C 53% 2.9 mph E4.7 kmh E 3.1 mph5.0 kmh 30.18 in1022.0 mb 0.00 in0.0 mm 0.00 in0.0 mm 0.00 in0.0 mm
05:39 PM 63.3°F17.4°C 46.4°F8.0°C 54% 2.5 mph NE4.0 kmh NE 3.8 mph6.1 kmh 30.18 in1022.0 mb 0.00 in0.0 mm 0.00 in0.0 mm 0.00 in0.0 mm
05:44 PM 63.5°F17.5°C 47.1°F8.4°C 55% 5.6 mph NE9.0 kmh NE 5.6 mph9.0 kmh 30.18 in1022.0 mb 0.00 in0.0 mm 0.00 in0.0 mm 0.00 in0.0 mm
05:49 PM 63.1°F17.3°C 48.6°F9.2°C 59% 2.2 mph NNE3.5 kmh NNE 6.5 mph10.5 kmh 30.18 in1022.0 mb 0.00 in0.0 mm 0.00 in0.0 mm 0.00 in0.0 mm
05:54 PM 63.1°F17.3°C 49.0°F9.4°C 60% 4.9 mph N7.9 kmh N 6.0 mph9.7 kmh 30.18 in1022.0 mb 0.00 in0.0 mm 0.00 in0.0 mm 0.00 in0.0 mm
05:59 PM 63.1°F17.3°C 49.5°F9.7°C 61% 2.7 mph NNW4.3 kmh NNW 3.8 mph6.1 kmh 30.18 in1022.0 mb 0.00 in0.0 mm 0.00 in0.0 mm 0.00 in0.0 mm
06:05 PM 62.8°F17.1°C 50.4°F10.2°C 64% 4.3 mph NNE6.9 kmh NNE 5.8 mph9.3 kmh 30.18 in1022.0 mb 0.00 in0.0 mm 0.00 in0.0 mm 0.00 in0.0 mm
06:10 PM 62.6°F17.0°C 51.1°F10.6°C 66% 3.8 mph N6.1 kmh N 4.3 mph6.9 kmh 30.18 in1022.0 mb 0.00 in0.0 mm 0.00 in0.0 mm 0.00 in0.0 mm
06:15 PM 62.2°F16.8°C 52.4°F11.3°C 70% 5.8 mph N9.3 kmh N 5.8 mph9.3 kmh 30.18 in1022.0 mb 0.00 in0.0 mm 0.00 in0.0 mm 0.00 in0.0 mm
06:19 PM 61.9°F16.6°C 52.4°F11.3°C 71% 2.5 mph ENE4.0 kmh ENE 5.8 mph9.3 kmh 30.18 in1022.0 mb 0.00 in0.0 mm 0.00 in0.0 mm 0.00 in0.0 mm
06:24 PM 61.7°F16.5°C 52.2°F11.2°C 71% 4.3 mph N6.9 kmh N 6.0 mph9.7 kmh 30.18 in1022.0 mb 0.00 in0.0 mm 0.00 in0.0 mm 0.00 in0.0 mm
06:29 PM 61.5°F16.4°C 52.0°F11.1°C 71% 2.0 mph W3.2 kmh W 4.0 mph6.4 kmh 30.18 in1022.0 mb 0.00 in0.0 mm 0.00 in0.0 mm 0.00 in0.0 mm
06:34 PM 61.3°F16.3°C 52.3°F11.3°C 72% 2.9 mph N4.7 kmh N 3.6 mph5.8 kmh 30.18 in1022.0 mb 0.00 in0.0 mm 0.00 in0.0 mm 0.00 in0.0 mm
06:38 PM 61.2°F16.2°C 52.1°F11.2°C 72% 3.6 mph WSW5.8 kmh WSW 5.8 mph9.3 kmh 30.21 in1023.0 mb 0.00 in0.0 mm 0.00 in0.0 mm 0.00 in0.0 mm
06:44 PM 61.0°F16.1°C 51.9°F11.1°C 72% 2.0 mph N3.2 kmh N 2.9 mph4.7 kmh 30.21 in1023.0 mb 0.00 in0.0 mm 0.00 in0.0 mm 0.00 in0.0 mm
06:49 PM 61.0°F16.1°C 52.3°F11.3°C 73% 2.5 mph N4.0 kmh N 2.5 mph4.0 kmh 30.21 in1023.0 mb 0.00 in0.0 mm 0.00 in0.0 mm 0.00 in0.0 mm
06:54 PM 60.8°F16.0°C 52.1°F11.2°C 73% 3.8 mph NNE6.1 kmh NNE 3.8 mph6.1 kmh 30.21 in1023.0 mb 0.00 in0.0 mm 0.00 in0.0 mm 0.00 in0.0 mm
06:59 PM 60.8°F16.0°C 52.1°F11.2°C 73% 1.1 mph N1.8 kmh N 3.8 mph6.1 kmh 30.21 in1023.0 mb 0.00 in0.0 mm 0.00 in0.0 mm 0.00 in0.0 mm
07:05 PM 60.4°F15.8°C 52.1°F11.2°C 74% 2.5 mph N4.0 kmh N 3.8 mph6.1 kmh 30.21 in1023.0 mb 0.00 in0.0 mm 0.00 in0.0 mm 0.00 in0.0 mm
07:10 PM 60.4°F15.8°C 52.5°F11.4°C 75% 2.5 mph E4.0 kmh E 4.7 mph7.6 kmh 30.21 in1023.0 mb 0.00 in0.0 mm 0.00 in0.0 mm 0.00 in0.0 mm
07:15 PM 60.3°F15.7°C 52.7°F11.5°C 76% 3.4 mph SSW5.5 kmh SSW 3.4 mph5.5 kmh 30.21 in1023.0 mb 0.00 in0.0 mm 0.00 in0.0 mm 0.00 in0.0 mm
07:20 PM 60.1°F15.6°C 52.9°F11.6°C 77% 2.9 mph SW4.7 kmh SW 4.0 mph6.4 kmh 30.21 in1023.0 mb 0.00 in0.0 mm 0.00 in0.0 mm 0.00 in0.0 mm
07:24 PM 60.1°F15.6°C 52.9°F11.6°C 77% 2.7 mph S4.3 kmh S 4.3 mph6.9 kmh 30.21 in1023.0 mb 0.00 in0.0 mm 0.00 in0.0 mm 0.00 in0.0 mm
07:29 PM 60.1°F15.6°C 52.9°F11.6°C 77% 2.9 mph ENE4.7 kmh ENE 5.8 mph9.3 kmh 30.21 in1023.0 mb 0.00 in0.0 mm 0.00 in0.0 mm 0.00 in0.0 mm
07:34 PM 60.1°F15.6°C 53.2°F11.8°C 78% 2.5 mph WSW4.0 kmh WSW 3.8 mph6.1 kmh 30.21 in1023.0 mb 0.00 in0.0 mm 0.00 in0.0 mm 0.00 in0.0 mm
07:39 PM 60.1°F15.6°C 53.2°F11.8°C 78% 1.3 mph NE2.1 kmh NE 2.0 mph3.2 kmh 30.21 in1023.0 mb 0.00 in0.0 mm 0.00 in0.0 mm 0.00 in0.0 mm
07:44 PM 60.1°F15.6°C 52.9°F11.6°C 77% 1.1 mph WSW1.8 kmh WSW 3.1 mph5.0 kmh 30.21 in1023.0 mb 0.00 in0.0 mm 0.00 in0.0 mm 0.00 in0.0 mm
07:48 PM 60.1°F15.6°C 52.9°F11.6°C 77% Calm Calm 1.6 mph2.6 kmh 30.21 in1023.0 mb 0.00 in0.0 mm 0.00 in0.0 mm 0.00 in0.0 mm
07:54 PM 60.1°F15.6°C 53.2°F11.8°C 78% 3.4 mph WSW5.5 kmh WSW 4.3 mph6.9 kmh 30.24 in1024.0 mb 0.00 in0.0 mm 0.00 in0.0 mm 0.00 in0.0 mm
07:59 PM 60.1°F15.6°C 53.2°F11.8°C 78% 2.5 mph NE4.0 kmh NE 4.3 mph6.9 kmh 30.24 in1024.0 mb 0.00 in0.0 mm 0.00 in0.0 mm 0.00 in0.0 mm
08:05 PM 60.1°F15.6°C 53.2°F11.8°C 78% 1.3 mph NE2.1 kmh NE 4.0 mph6.4 kmh 30.24 in1024.0 mb 0.00 in0.0 mm 0.00 in0.0 mm 0.00 in0.0 mm
08:10 PM 60.1°F15.6°C 53.2°F11.8°C 78% 2.7 mph N4.3 kmh N 2.7 mph4.3 kmh 30.24 in1024.0 mb 0.00 in0.0 mm 0.00 in0.0 mm 0.00 in0.0 mm
08:15 PM 59.9°F15.5°C 53.0°F11.7°C 78% 1.6 mph ENE2.6 kmh ENE 4.9 mph7.9 kmh 30.24 in1024.0 mb 0.00 in0.0 mm 0.00 in0.0 mm 0.00 in0.0 mm
08:20 PM 59.9°F15.5°C 53.4°F11.9°C 79% Calm Calm 5.6 mph9.0 kmh 30.24 in1024.0 mb 0.00 in0.0 mm 0.00 in0.0 mm 0.00 in0.0 mm
08:24 PM 60.1°F15.6°C 53.6°F12.0°C 79% Calm Calm 2.0 mph3.2 kmh 30.24 in1024.0 mb 0.00 in0.0 mm 0.00 in0.0 mm 0.00 in0.0 mm
08:29 PM 59.9°F15.5°C 53.4°F11.9°C 79% Calm Calm 6.0 mph9.7 kmh 30.24 in1024.0 mb 0.00 in0.0 mm 0.00 in0.0 mm 0.00 in0.0 mm
08:34 PM 60.1°F15.6°C 53.6°F12.0°C 79% 3.1 mph NE5.0 kmh NE 3.4 mph5.5 kmh 30.24 in1024.0 mb 0.00 in0.0 mm 0.00 in0.0 mm 0.00 in0.0 mm
08:39 PM 59.9°F15.5°C 53.4°F11.9°C 79% 2.5 mph NE4.0 kmh NE 3.1 mph5.0 kmh 30.24 in1024.0 mb 0.00 in0.0 mm 0.00 in0.0 mm 0.00 in0.0 mm
08:44 PM 59.9°F15.5°C 53.4°F11.9°C 79% 4.0 mph WSW6.4 kmh WSW 4.0 mph6.4 kmh 30.24 in1024.0 mb 0.00 in0.0 mm 0.00 in0.0 mm 0.00 in0.0 mm
08:49 PM 59.7°F15.4°C 53.2°F11.8°C 79% Calm Calm 4.0 mph6.4 kmh 30.24 in1024.0 mb 0.00 in0.0 mm 0.00 in0.0 mm 0.00 in0.0 mm
08:54 PM 59.7°F15.4°C 53.6°F12.0°C 80% Calm Calm 2.7 mph4.3 kmh 30.24 in1024.0 mb 0.00 in0.0 mm 0.00 in0.0 mm 0.00 in0.0 mm
08:59 PM 59.9°F15.5°C 53.4°F11.9°C 79% 2.7 mph WSW4.3 kmh WSW 2.7 mph4.3 kmh 30.24 in1024.0 mb 0.00 in0.0 mm 0.00 in0.0 mm 0.00 in0.0 mm
09:04 PM 59.7°F15.4°C 53.6°F12.0°C 80% Calm Calm 0.9 mph1.4 kmh 30.24 in1024.0 mb 0.00 in0.0 mm 0.00 in0.0 mm 0.00 in0.0 mm
09:10 PM 59.7°F15.4°C 53.6°F12.0°C 80% 1.6 mph SW2.6 kmh SW 2.0 mph3.2 kmh 30.27 in1025.1 mb 0.00 in0.0 mm 0.00 in0.0 mm 0.00 in0.0 mm
09:15 PM 59.7°F15.4°C 53.6°F12.0°C 80% 3.6 mph SW5.8 kmh SW 3.8 mph6.1 kmh 30.27 in1025.1 mb 0.00 in0.0 mm 0.00 in0.0 mm 0.00 in0.0 mm
09:20 PM 59.7°F15.4°C 53.9°F12.2°C 81% 3.1 mph NE5.0 kmh NE 5.6 mph9.0 kmh 30.27 in1025.1 mb 0.00 in0.0 mm 0.00 in0.0 mm 0.00 in0.0 mm
09:24 PM 59.5°F15.3°C 53.7°F12.1°C 81% 1.1 mph NE1.8 kmh NE 3.1 mph5.0 kmh 30.27 in1025.1 mb 0.00 in0.0 mm 0.00 in0.0 mm 0.00 in0.0 mm
09:29 PM 59.4°F15.2°C 53.5°F11.9°C 81% Calm Calm 3.1 mph5.0 kmh 30.27 in1025.1 mb 0.00 in0.0 mm 0.00 in0.0 mm 0.00 in0.0 mm
09:34 PM 59.4°F15.2°C 53.5°F11.9°C 81% 1.3 mph ENE2.1 kmh ENE 1.3 mph2.1 kmh 30.27 in1025.1 mb 0.00 in0.0 mm 0.00 in0.0 mm 0.00 in0.0 mm
09:39 PM 59.4°F15.2°C 53.5°F11.9°C 81% Calm Calm 3.4 mph5.5 kmh 30.27 in1025.1 mb 0.00 in0.0 mm 0.00 in0.0 mm 0.00 in0.0 mm
09:44 PM 59.5°F15.3°C 53.7°F12.1°C 81% 1.3 mph NW2.1 kmh NW 3.4 mph5.5 kmh 30.27 in1025.1 mb 0.00 in0.0 mm 0.00 in0.0 mm 0.00 in0.0 mm
09:49 PM 59.5°F15.3°C 53.7°F12.1°C 81% Calm Calm 2.9 mph4.7 kmh 30.27 in1025.1 mb 0.00 in0.0 mm 0.00 in0.0 mm 0.00 in0.0 mm
09:54 PM 59.5°F15.3°C 53.7°F12.1°C 81% Calm Calm 2.5 mph4.0 kmh 30.27 in1025.1 mb 0.00 in0.0 mm 0.00 in0.0 mm 0.00 in0.0 mm
09:59 PM 59.5°F15.3°C 53.7°F12.1°C 81% 1.6 mph NNE2.6 kmh NNE 1.6 mph2.6 kmh 30.27 in1025.1 mb 0.00 in0.0 mm 0.00 in0.0 mm 0.00 in0.0 mm
10:04 PM 59.5°F15.3°C 54.1°F12.3°C 82% Calm Calm 4.3 mph6.9 kmh 30.27 in1025.1 mb 0.00 in0.0 mm 0.00 in0.0 mm 0.00 in0.0 mm
10:10 PM 59.5°F15.3°C 54.1°F12.3°C 82% 2.0 mph NNE3.2 kmh NNE 4.0 mph6.4 kmh 30.27 in1025.1 mb 0.00 in0.0 mm 0.00 in0.0 mm 0.00 in0.0 mm
10:15 PM 59.5°F15.3°C 53.7°F12.1°C 81% Calm Calm 2.0 mph3.2 kmh 30.27 in1025.1 mb 0.00 in0.0 mm 0.00 in0.0 mm 0.00 in0.0 mm
10:20 PM 59.5°F15.3°C 53.7°F12.1°C 81% Calm Calm 2.2 mph3.5 kmh 30.27 in1025.1 mb 0.00 in0.0 mm 0.00 in0.0 mm 0.00 in0.0 mm
10:24 PM 59.4°F15.2°C 53.5°F11.9°C 81% 1.6 mph NE2.6 kmh NE 1.6 mph2.6 kmh 30.27 in1025.1 mb 0.00 in0.0 mm 0.00 in0.0 mm 0.00 in0.0 mm
10:29 PM 59.4°F15.2°C 53.2°F11.8°C 80% Calm Calm -- 30.27 in1025.1 mb 0.00 in0.0 mm 0.00 in0.0 mm 0.00 in0.0 mm
10:34 PM 59.4°F15.2°C 53.2°F11.8°C 80% Calm Calm 2.0 mph3.2 kmh 30.27 in1025.1 mb 0.00 in0.0 mm 0.00 in0.0 mm 0.00 in0.0 mm
10:39 PM 59.4°F15.2°C 53.2°F11.8°C 80% Calm Calm -- 30.27 in1025.1 mb 0.00 in0.0 mm 0.00 in0.0 mm 0.00 in0.0 mm
10:43 PM 59.2°F15.1°C 53.0°F11.7°C 80% Calm Calm -- 30.27 in1025.1 mb 0.00 in0.0 mm 0.00 in0.0 mm 0.00 in0.0 mm
10:49 PM 59.2°F15.1°C 53.0°F11.7°C 80% 1.1 mph SSW1.8 kmh SSW 2.9 mph4.7 kmh 30.27 in1025.1 mb 0.00 in0.0 mm 0.00 in0.0 mm 0.00 in0.0 mm
10:54 PM 59.2°F15.1°C 53.4°F11.9°C 81% 2.5 mph WSW4.0 kmh WSW 4.0 mph6.4 kmh 30.27 in1025.1 mb 0.00 in0.0 mm 0.00 in0.0 mm 0.00 in0.0 mm
10:59 PM 59.2°F15.1°C 53.4°F11.9°C 81% Calm Calm 2.5 mph4.0 kmh 30.27 in1025.1 mb 0.00 in0.0 mm 0.00 in0.0 mm 0.00 in0.0 mm
11:04 PM 59.4°F15.2°C 53.9°F12.2°C 82% 2.0 mph WSW3.2 kmh WSW 2.5 mph4.0 kmh 30.27 in1025.1 mb 0.00 in0.0 mm 0.00 in0.0 mm 0.00 in0.0 mm
11:10 PM 59.4°F15.2°C 53.9°F12.2°C 82% 1.6 mph SW2.6 kmh SW 4.0 mph6.4 kmh 30.27 in1025.1 mb 0.00 in0.0 mm 0.00 in0.0 mm 0.00 in0.0 mm
11:15 PM 59.4°F15.2°C 53.9°F12.2°C 82% Calm Calm 3.1 mph5.0 kmh 30.27 in1025.1 mb 0.00 in0.0 mm 0.00 in0.0 mm 0.00 in0.0 mm
11:20 PM 59.2°F15.1°C 53.7°F12.1°C 82% 3.4 mph WSW5.5 kmh WSW 3.4 mph5.5 kmh 30.27 in1025.1 mb 0.00 in0.0 mm 0.00 in0.0 mm 0.00 in0.0 mm
11:24 PM 59.2°F15.1°C 53.7°F12.1°C 82% 2.5 mph WSW4.0 kmh WSW 3.4 mph5.5 kmh 30.27 in1025.1 mb 0.00 in0.0 mm 0.00 in0.0 mm 0.00 in0.0 mm
11:29 PM 59.2°F15.1°C 53.7°F12.1°C 82% 1.3 mph WSW2.1 kmh WSW 1.6 mph2.6 kmh 30.27 in1025.1 mb 0.00 in0.0 mm 0.00 in0.0 mm 0.00 in0.0 mm
11:34 PM 59.2°F15.1°C 53.7°F12.1°C 82% 2.5 mph WSW4.0 kmh WSW 3.8 mph6.1 kmh 30.27 in1025.1 mb 0.00 in0.0 mm 0.00 in0.0 mm 0.00 in0.0 mm
11:39 PM 59.2°F15.1°C 53.7°F12.1°C 82% 2.7 mph WSW4.3 kmh WSW 3.4 mph5.5 kmh 30.27 in1025.1 mb 0.00 in0.0 mm 0.00 in0.0 mm 0.00 in0.0 mm
11:44 PM 59.2°F15.1°C 53.7°F12.1°C 82% Calm Calm 2.0 mph3.2 kmh 30.27 in1025.1 mb 0.00 in0.0 mm 0.00 in0.0 mm 0.00 in0.0 mm
11:49 PM 59.2°F15.1°C 53.7°F12.1°C 82% 2.5 mph WSW4.0 kmh WSW 3.1 mph5.0 kmh 30.27 in1025.1 mb 0.00 in0.0 mm 0.00 in0.0 mm 0.00 in0.0 mm
11:54 PM 59.0°F15.0°C 53.5°F11.9°C 82% 2.7 mph WSW4.3 kmh WSW 4.7 mph7.6 kmh 30.27 in1025.1 mb 0.00 in0.0 mm 0.00 in0.0 mm 0.00 in0.0 mm
11:59 PM 59.0°F15.0°C 53.5°F11.9°C 82% 4.7 mph WSW7.6 kmh WSW 4.7 mph7.6 kmh 30.27 in1025.1 mb 0.00 in0.0 mm 0.00 in0.0 mm 0.00 in0.0 mm